| time (UTC) | temp C | wind direction | speed KPH | gust KPH | rain 1hr cm | rain 24hr cm | rain mn cm | humidity % | barometer mb |
| 20260510054843 | 9 | 341 | 0.0 | 3.2 | 0.00 | 0.41 | 0.00 | 99 | 1011.2 |
| 20260510054612 | 8 | 341 | 0.0 | 3.2 | 0.00 | 0.41 | 0.00 | 99 | 1011.3 |
| 20260510054336 | 9 | 2 | 0.0 | 3.2 | 0.00 | 0.41 | 0.00 | 99 | 1011.3 |
| 20260510053900 | 8 | 314 | 1.6 | 3.2 | 0.00 | 0.41 | 0.00 | 99 | 1011.3 |
| 20260510053350 | 8 | 330 | 3.2 | 3.2 | 0.00 | 0.41 | 0.00 | 98 | 1011.0 |
| 20260510053112 | 8 | 333 | 1.6 | 3.2 | 0.00 | 0.41 | 0.00 | 98 | 1010.9 |
| 20260510052840 | 9 | 326 | 3.2 | 3.2 | 0.00 | 0.41 | 0.00 | 99 | 1010.8 |
| 20260510052349 | 9 | 158 | 0.0 | 3.2 | 0.00 | 0.41 | 0.00 | 99 | 1010.6 |
| 20260510051855 | 9 | 158 | 0.0 | 3.2 | 0.00 | 0.41 | 0.00 | 99 | 1010.7 |
| 20260510051618 | 8 | 158 | 0.0 | 0.0 | 0.00 | 0.41 | 0.00 | 99 | 1010.7 |
| 20260510051345 | 9 | 158 | 0.0 | 0.0 | 0.00 | 0.41 | 0.00 | 99 | 1010.6 |
| 20260510050852 | 9 | 158 | 0.0 | 3.2 | 0.00 | 0.41 | 0.00 | 99 | 1010.6 |
| 20260510050343 | 9 | 158 | 0.0 | 3.2 | 0.00 | 0.41 | 0.00 | 98 | 1010.7 |
| 20260510050120 | 8 | 158 | 0.0 | 0.0 | 0.00 | 0.41 | 0.00 | 99 | 1010.7 |
| 20260510045844 | 9 | 158 | 0.0 | 0.0 | 0.00 | 0.41 | 0.00 | 99 | 1010.7 |
| 20260510045354 | 9 | 158 | 0.0 | 0.0 | 0.00 | 0.41 | 0.00 | 99 | 1010.7 |
| 20260510044838 | 9 | 158 | 0.0 | 0.0 | 0.00 | 0.41 | 0.00 | 98 | 1010.7 |
| 20260510044508 | 8 | 158 | 0.0 | 0.0 | 0.00 | 0.41 | 0.00 | 98 | 1010.7 |
| 20260510044407 | 9 | 158 | 0.0 | 0.0 | 0.00 | 0.41 | 0.00 | 98 | 1010.6 |
| 20260510043910 | 9 | 158 | 0.0 | 0.0 | 0.00 | 0.41 | 0.00 | 98 | 1010.8 |
| 20260510043400 | 9 | 158 | 0.0 | 0.0 | 0.00 | 0.41 | 0.00 | 98 | 1010.8 |
| 20260510043117 | 9 | 158 | 0.0 | 1.6 | 0.00 | 0.41 | 0.00 | 98 | 1010.8 |
| 20260510042844 | 9 | 158 | 0.0 | 1.6 | 0.00 | 0.41 | 0.00 | 98 | 1010.8 |
| 20260510042414 | 9 | 158 | 0.0 | 3.2 | 0.00 | 0.41 | 0.00 | 99 | 1010.8 |
| 20260510041857 | 9 | 158 | 0.0 | 3.2 | 0.00 | 0.41 | 0.00 | 98 | 1010.9 |
| 20260510041621 | 9 | 158 | 0.0 | 3.2 | 0.00 | 0.41 | 0.00 | 98 | 1010.9 |
| 20260510041348 | 9 | 158 | 0.0 | 1.6 | 0.00 | 0.41 | 0.00 | 98 | 1010.9 |
| 20260510040852 | 10 | 158 | 0.0 | 1.6 | 0.00 | 0.41 | 0.00 | 99 | 1010.8 |
| 20260510040342 | 9 | 158 | 0.0 | 0.0 | 0.00 | 0.41 | 0.00 | 98 | 1010.8 |
| 20260510040119 | 9 | 158 | 0.0 | 0.0 | 0.00 | 0.41 | 0.00 | 98 | 1010.9 |
| 20260510035844 | 9 | 158 | 0.0 | 0.0 | 0.00 | 0.41 | 0.41 | 98 | 1010.8 |
| 20260510035355 | 9 | 158 | 0.0 | 0.0 | 0.00 | 0.41 | 0.41 | 98 | 1010.9 |
| 20260510034840 | 9 | 158 | 0.0 | 0.0 | 0.00 | 0.41 | 0.41 | 98 | 1010.7 |
| 20260510034608 | 9 | 158 | 0.0 | 0.0 | 0.00 | 0.41 | 0.41 | 98 | 1010.8 |
| 20260510034352 | 9 | 158 | 0.0 | 0.0 | 0.00 | 0.41 | 0.41 | 98 | 1010.7 |
| 20260510033856 | 9 | 158 | 0.0 | 0.0 | 0.00 | 0.41 | 0.41 | 98 | 1010.7 |
| 20260510033348 | 10 | 158 | 0.0 | 0.0 | 0.00 | 0.41 | 0.41 | 97 | 1010.7 |
| 20260510033108 | 9 | 158 | 0.0 | 0.0 | 0.00 | 0.41 | 0.41 | 97 | 1010.7 |
| 20260510032847 | 10 | 158 | 0.0 | 0.0 | 0.00 | 0.41 | 0.41 | 98 | 1010.8 |
| 20260510032337 | 10 | 158 | 0.0 | 0.0 | 0.00 | 0.41 | 0.41 | 98 | 1010.8 |
| 20260510031843 | 10 | 158 | 0.0 | 0.0 | 0.00 | 0.41 | 0.41 | 98 | 1010.7 |
| 20260510031611 | 10 | 158 | 0.0 | 0.0 | 0.00 | 0.41 | 0.41 | 98 | 1010.7 |
| 20260510031414 | 10 | 158 | 0.0 | 0.0 | 0.00 | 0.41 | 0.41 | 97 | 1010.7 |
| 20260510030837 | 10 | 158 | 0.0 | 0.0 | 0.00 | 0.41 | 0.41 | 97 | 1010.6 |
| 20260510030346 | 10 | 158 | 0.0 | 0.0 | 0.00 | 0.41 | 0.41 | 97 | 1010.7 |
| 20260510030109 | 10 | 158 | 0.0 | 0.0 | 0.00 | 0.41 | 0.41 | 97 | 1010.8 |
| 20260510025850 | 10 | 158 | 0.0 | 0.0 | 0.00 | 0.41 | 0.41 | 97 | 1010.8 |
| 20260510025337 | 11 | 158 | 0.0 | 0.0 | 0.00 | 0.41 | 0.41 | 97 | 1010.8 |
| 20260510024847 | 11 | 158 | 0.0 | 0.0 | 0.00 | 0.41 | 0.41 | 97 | 1010.8 |
| 20260510024616 | 10 | 158 | 0.0 | 0.0 | 0.00 | 0.41 | 0.41 | 97 | 1010.7 |
| 20260510024417 | 11 | 158 | 0.0 | 0.0 | 0.00 | 0.41 | 0.41 | 97 | 1010.7 |
| 20260510023846 | 11 | 158 | 0.0 | 3.2 | 0.00 | 0.41 | 0.41 | 98 | 1010.6 |
| 20260510023356 | 11 | 158 | 0.0 | 4.8 | 0.00 | 0.41 | 0.41 | 98 | 1010.6 |
| 20260510023117 | 11 | 158 | 0.0 | 4.8 | 0.00 | 0.41 | 0.41 | 99 | 1010.6 |
| 20260510022837 | 11 | 158 | 1.6 | 8.0 | 0.00 | 0.41 | 0.41 | 99 | 1010.6 |
| 20260510022348 | 11 | 174 | 1.6 | 8.0 | 0.00 | 0.41 | 0.41 | 99 | 1010.6 |
| 20260510021909 | 10 | 126 | 0.0 | 3.2 | 0.00 | 0.41 | 0.41 | 98 | 1010.7 |
| 20260510021617 | 10 | 126 | 0.0 | 3.2 | 0.00 | 0.41 | 0.41 | 98 | 1010.6 |
| 20260510021357 | 10 | 121 | 0.0 | 1.6 | 0.00 | 0.41 | 0.41 | 98 | 1010.6 |
| 20260510020855 | 10 | 121 | 0.0 | 3.2 | 0.00 | 0.41 | 0.41 | 98 | 1010.4 |
| 20260510020345 | 10 | 121 | 0.0 | 3.2 | 0.00 | 0.41 | 0.41 | 97 | 1010.5 |
| 20260510020006 | 10 | 198 | 0.0 | 0.0 | 0.00 | 0.41 | 0.41 | 97 | 1010.5 |
| 20260510015905 | 10 | 198 | 0.0 | 0.0 | 0.00 | 0.41 | 0.41 | 97 | 1010.4 |
| 20260510015355 | 10 | 198 | 0.0 | 0.0 | 0.00 | 0.41 | 0.41 | 97 | 1010.3 |
| 20260510014902 | 10 | 197 | 0.0 | 0.0 | 0.00 | 0.41 | 0.41 | 96 | 1010.3 |
| 20260510014609 | 10 | 197 | 0.0 | 0.0 | 0.00 | 0.41 | 0.41 | 97 | 1010.3 |
| 20260510014352 | 10 | 197 | 0.0 | 0.0 | 0.00 | 0.41 | 0.41 | 97 | 1010.3 |
| 20260510013856 | 10 | 197 | 0.0 | 0.0 | 0.00 | 0.41 | 0.41 | 97 | 1010.3 |
| 20260510013346 | 10 | 197 | 0.0 | 0.0 | 0.00 | 0.41 | 0.41 | 97 | 1010.2 |
| 20260510013113 | 10 | 197 | 0.0 | 0.0 | 0.00 | 0.41 | 0.41 | 97 | 1010.3 |
| 20260510012911 | 10 | 197 | 0.0 | 0.0 | 0.00 | 0.41 | 0.41 | 97 | 1010.3 |
| 20260510012338 | 10 | 197 | 0.0 | 0.0 | 0.00 | 0.41 | 0.41 | 96 | 1010.3 |
| 20260510011848 | 10 | 197 | 0.0 | 0.0 | 0.00 | 0.41 | 0.41 | 96 | 1010.2 |
| 20260510011617 | 10 | 197 | 0.0 | 0.0 | 0.00 | 0.41 | 0.41 | 96 | 1010.2 |
| 20260510010918 | 10 | 197 | 0.0 | 0.0 | 0.00 | 0.41 | 0.41 | 95 | 1010.1 |
| 20260510010347 | 10 | 197 | 0.0 | 0.0 | 0.00 | 0.41 | 0.41 | 95 | 1010.1 |
| 20260510010109 | 10 | 197 | 0.0 | 0.0 | 0.00 | 0.41 | 0.41 | 95 | 1010.1 |
| 20260510005912 | 10 | 197 | 526.3 | 526.3 | 0.00 | 0.00 | 0.41 | 95 | 1009.9 |
| 20260510004844 | 11 | 197 | 0.0 | 0.0 | 0.00 | 0.41 | 0.41 | 94 | 1010.0 |
| 20260510004609 | 11 | 197 | 0.0 | 0.0 | 0.00 | 0.41 | 0.41 | 94 | 1009.9 |
| 20260510004350 | 11 | 197 | 0.0 | 0.0 | 0.00 | 0.41 | 0.41 | 94 | 1009.9 |
| 20260510003838 | 11 | 197 | 0.0 | 0.0 | 0.00 | 0.41 | 0.41 | 94 | 1009.9 |
| 20260510003350 | 11 | 197 | 0.0 | 0.0 | 0.00 | 0.41 | 0.41 | 93 | 1009.9 |
| 20260510003112 | 11 | 197 | 0.0 | 0.0 | 0.00 | 0.41 | 0.41 | 93 | 1009.8 |
| 20260510002853 | 11 | 197 | 0.0 | 0.0 | 0.00 | 0.41 | 0.41 | 93 | 1009.7 |
| 20260510002341 | 11 | 197 | 0.0 | 0.0 | 0.00 | 0.41 | 0.41 | 93 | 1009.6 |
| 20260510001850 | 12 | 197 | 0.0 | 0.0 | 0.00 | 0.41 | 0.41 | 92 | 1009.6 |
| 20260510001617 | 11 | 197 | 0.0 | 0.0 | 0.00 | 0.41 | 0.41 | 92 | 1009.4 |
| 20260510001345 | 12 | 197 | 0.0 | 0.0 | 0.00 | 0.41 | 0.41 | 92 | 1009.5 |
| 20260510000908 | 12 | 197 | 0.0 | 0.0 | 0.00 | 0.41 | 0.41 | 92 | 1009.5 |
| 20260510000342 | 12 | 197 | 0.0 | 0.0 | 0.00 | 0.41 | 0.41 | 91 | 1009.5 |
| 20260510000121 | 12 | 197 | 0.0 | 0.0 | 0.00 | 0.41 | 0.41 | 91 | 1009.3 |
| 20260509235846 | 12 | 197 | 0.0 | 0.0 | 0.00 | 0.41 | 0.41 | 91 | 1009.4 |
| 20260509235357 | 13 | 197 | 0.0 | 0.0 | 0.00 | 0.41 | 0.41 | 90 | 1009.3 |
| 20260509234842 | 13 | 197 | 0.0 | 0.0 | 0.00 | 0.41 | 0.41 | 90 | 1009.3 |
| 20260509234607 | 13 | 197 | 0.0 | 0.0 | 0.00 | 0.41 | 0.41 | 89 | 1009.3 |
| 20260509234352 | 13 | 197 | 0.0 | 0.0 | 0.00 | 0.41 | 0.41 | 89 | 1009.4 |
| 20260509233858 | 13 | 197 | 0.0 | 0.0 | 0.00 | 0.41 | 0.41 | 88 | 1009.4 |
| 20260509233341 | 13 | 197 | 0.0 | 0.0 | 0.00 | 0.41 | 0.41 | 88 | 1009.3 |
| 20260509233004 | 13 | 197 | 0.0 | 0.0 | 0.00 | 0.41 | 0.41 | 88 | 1009.2 |
| 20260509232904 | 13 | 197 | 0.0 | 1.6 | 0.00 | 0.41 | 0.41 | 88 | 1009.3 |
| 20260509232354 | 13 | 197 | 0.0 | 3.2 | 0.00 | 0.41 | 0.41 | 87 | 1009.4 |
| 20260509231857 | 14 | 197 | 0.0 | 3.2 | 0.00 | 0.41 | 0.41 | 87 | 1009.4 |
| 20260509231507 | 13 | 174 | 0.0 | 0.0 | 0.00 | 0.41 | 0.41 | 86 | 1009.3 |
| 20260509231407 | 14 | 174 | 0.0 | 0.0 | 0.00 | 0.41 | 0.41 | 86 | 1009.4 |
| 20260509230853 | 14 | 174 | 0.0 | 0.0 | 0.00 | 0.41 | 0.41 | 86 | 1009.4 |
| 20260509230345 | 14 | 174 | 0.0 | 3.2 | 0.00 | 0.41 | 0.41 | 85 | 1009.4 |
| 20260509230104 | 14 | 174 | 0.0 | 3.2 | 0.00 | 0.41 | 0.41 | 85 | 1009.3 |
| 20260509225849 | 14 | 174 | 0.0 | 3.2 | 0.00 | 0.41 | 0.41 | 85 | 1009.4 |
| 20260509225338 | 14 | 196 | 0.0 | 0.0 | 0.00 | 0.41 | 0.41 | 85 | 1009.3 |
| 20260509224847 | 14 | 199 | 0.0 | 3.2 | 0.00 | 0.41 | 0.41 | 85 | 1009.4 |
| 20260509224612 | 14 | 204 | 0.0 | 3.2 | 0.00 | 0.41 | 0.41 | 85 | 1009.3 |
| 20260509224357 | 14 | 181 | 0.0 | 3.2 | 0.00 | 0.41 | 0.41 | 86 | 1009.3 |
| 20260509223901 | 14 | 180 | 0.0 | 3.2 | 0.00 | 0.41 | 0.41 | 86 | 1009.2 |
| 20260509223408 | 14 | 142 | 0.0 | 3.2 | 0.00 | 0.41 | 0.41 | 86 | 1009.3 |
| 20260509223014 | 14 | 142 | 0.0 | 3.2 | 0.00 | 0.41 | 0.41 | 86 | 1009.2 |
| 20260509222910 | 14 | 142 | 0.0 | 3.2 | 0.00 | 0.41 | 0.41 | 86 | 1009.3 |
| 20260509222421 | 14 | 222 | 0.0 | 4.8 | 0.00 | 0.41 | 0.41 | 86 | 1009.2 |
| 20260509221844 | 14 | 184 | 1.6 | 4.8 | 0.00 | 0.41 | 0.41 | 86 | 1009.3 |
| 20260509221605 | 13 | 162 | 1.6 | 4.8 | 0.00 | 0.41 | 0.41 | 86 | 1009.2 |
| 20260509221412 | 14 | 150 | 1.6 | 4.8 | 0.00 | 0.41 | 0.41 | 87 | 1009.3 |
| 20260509220858 | 13 | 283 | 1.6 | 4.8 | 0.00 | 0.41 | 0.41 | 88 | 1009.4 |
| 20260509220349 | 13 | 243 | 0.0 | 8.0 | 0.00 | 0.41 | 0.41 | 88 | 1009.4 |
| 20260509220104 | 13 | 269 | 0.0 | 8.0 | 0.00 | 0.41 | 0.41 | 88 | 1009.3 |
| 20260509215850 | 13 | 251 | 1.6 | 8.0 | 0.00 | 0.41 | 0.41 | 88 | 1009.5 |
| 20260509215340 | 13 | 186 | 3.2 | 6.4 | 0.00 | 0.41 | 0.41 | 89 | 1009.5 |
| 20260509214620 | 13 | 210 | 0.0 | 4.8 | 0.00 | 0.41 | 0.41 | 90 | 1009.5 |
| 20260509214344 | 13 | 214 | 0.0 | 4.8 | 0.00 | 0.41 | 0.41 | 90 | 1009.6 |
| 20260509213359 | 13 | 205 | 0.0 | 4.8 | 0.00 | 0.41 | 0.41 | 91 | 1009.6 |
| 20260509213113 | 13 | 204 | 0.0 | 4.8 | 0.00 | 0.41 | 0.41 | 91 | 1009.5 |
| 20260509212858 | 13 | 243 | 1.6 | 4.8 | 0.00 | 0.41 | 0.41 | 91 | 1009.5 |
| 20260509212345 | 13 | 206 | 0.0 | 4.8 | 0.00 | 0.41 | 0.41 | 92 | 1009.5 |
| 20260509211855 | 13 | 227 | 0.0 | 4.8 | 0.00 | 0.41 | 0.41 | 91 | 1009.5 |
| 20260509211622 | 12 | 222 | 0.0 | 4.8 | 0.00 | 0.41 | 0.41 | 91 | 1009.4 |
| 20260509211345 | 13 | 193 | 0.0 | 4.8 | 0.00 | 0.41 | 0.41 | 91 | 1009.5 |
| 20260509210849 | 13 | 208 | 1.6 | 4.8 | 0.00 | 0.41 | 0.41 | 91 | 1009.5 |
| 20260509210359 | 13 | 173 | 0.0 | 4.8 | 0.00 | 0.41 | 0.41 | 92 | 1009.6 |
| 20260509210117 | 12 | 208 | 0.0 | 4.8 | 0.00 | 0.41 | 0.41 | 92 | 1009.6 |
| 20260509205857 | 13 | 185 | 0.0 | 3.2 | 0.00 | 0.41 | 0.41 | 92 | 1009.8 |
| 20260509205346 | 13 | 185 | 0.0 | 6.4 | 0.00 | 0.41 | 0.41 | 92 | 1009.9 |
| 20260509204855 | 13 | 228 | 1.6 | 6.4 | 0.00 | 0.41 | 0.41 | 92 | 1010.0 |
| 20260509204604 | 12 | 202 | 0.0 | 6.4 | 0.00 | 0.41 | 0.41 | 91 | 1010.0 |
| 20260509204408 | 13 | 171 | 1.6 | 6.4 | 0.00 | 0.41 | 0.41 | 91 | 1010.1 |
| 20260509203853 | 13 | 216 | 0.0 | 4.8 | 0.00 | 0.41 | 0.41 | 92 | 1009.9 |
| 20260509203346 | 13 | 211 | 0.0 | 4.8 | 0.00 | 0.41 | 0.41 | 92 | 1010.0 |
| 20260509203109 | 12 | 253 | 1.6 | 11.3 | 0.00 | 0.41 | 0.41 | 91 | 1010.0 |
| 20260509202849 | 13 | 222 | 1.6 | 11.3 | 0.00 | 0.41 | 0.41 | 92 | 1010.1 |
| 20260509202359 | 12 | 274 | 1.6 | 11.3 | 0.00 | 0.41 | 0.41 | 92 | 1010.2 |
| 20260509201839 | 12 | 287 | 3.2 | 8.0 | 0.00 | 0.41 | 0.41 | 93 | 1010.2 |
| 20260509201611 | 12 | 298 | 0.0 | 3.2 | 0.00 | 0.41 | 0.41 | 94 | 1010.1 |
| 20260509201411 | 12 | 210 | 0.0 | 3.2 | 0.00 | 0.41 | 0.41 | 94 | 1010.2 |
| 20260509200839 | 12 | 274 | 0.0 | 0.0 | 0.00 | 0.41 | 0.41 | 94 | 1010.2 |
| 20260509200352 | 12 | 286 | 0.0 | 3.2 | 0.00 | 0.41 | 0.41 | 94 | 1010.2 |
| 20260509200111 | 12 | 233 | 0.0 | 3.2 | 0.00 | 0.41 | 0.41 | 94 | 1010.1 |
| 20260509195916 | 12 | 268 | 0.0 | 3.2 | 0.00 | 0.41 | 0.41 | 94 | 1010.2 |
| 20260509195402 | 12 | 210 | 0.0 | 3.2 | 0.00 | 0.41 | 0.41 | 94 | 1010.1 |
| 20260509194851 | 12 | 213 | 0.0 | 3.2 | 0.00 | 0.41 | 0.41 | 94 | 1010.2 |
| 20260509194618 | 11 | 203 | 0.0 | 3.2 | 0.00 | 0.41 | 0.41 | 93 | 1010.1 |
| 20260509194359 | 12 | 203 | 1.6 | 3.2 | 0.03 | 0.41 | 0.41 | 93 | 1010.2 |
| 20260509193843 | 12 | 202 | 0.0 | 0.0 | 0.00 | 0.00 | 0.41 | 94 | 1010.0 |
| 20260509193354 | 12 | 220 | 0.0 | 3.2 | 0.03 | 0.41 | 0.41 | 94 | 1010.3 |
| 20260509193114 | 11 | 222 | 0.0 | 3.2 | 0.03 | 0.41 | 0.41 | 94 | 1010.2 |
| 20260509192918 | 12 | 160 | 0.0 | 3.2 | 0.03 | 0.41 | 0.41 | 94 | 1010.3 |
| 20260509192345 | 12 | 163 | 1.6 | 4.8 | 0.05 | 0.41 | 0.41 | 95 | 1010.4 |
| 20260509191851 | 12 | 279 | 1.6 | 3.2 | 0.05 | 0.41 | 0.41 | 95 | 1010.6 |
| 20260509191617 | 11 | 206 | 0.0 | 3.2 | 0.08 | 0.41 | 0.41 | 96 | 1010.5 |
| 20260509191359 | 11 | 185 | 0.0 | 3.2 | 0.08 | 0.41 | 0.41 | 95 | 1010.6 |
| 20260509190846 | 11 | 160 | 1.6 | 3.2 | 0.08 | 0.41 | 0.41 | 95 | 1010.6 |
| 20260509190357 | 11 | 166 | 1.6 | 3.2 | 0.08 | 0.41 | 0.41 | 96 | 1010.7 |
| 20260509190109 | 11 | 198 | 0.0 | 3.2 | 0.08 | 0.41 | 0.41 | 96 | 1010.7 |
| 20260509185851 | 11 | 168 | 0.0 | 3.2 | 0.08 | 0.41 | 0.41 | 95 | 1010.8 |
| 20260509185342 | 11 | 159 | 1.6 | 3.2 | 0.08 | 0.41 | 0.41 | 96 | 1011.0 |
| 20260509184846 | 11 | 222 | 1.6 | 4.8 | 0.10 | 0.41 | 0.41 | 95 | 1011.2 |
| 20260509184706 | 11 | 199 | 0.0 | 4.8 | 0.10 | 0.41 | 0.41 | 95 | 1011.2 |
| 20260509184335 | 11 | 158 | 1.6 | 4.8 | 0.08 | 0.38 | 0.38 | 95 | 1011.3 |
| 20260509183845 | 11 | 198 | 0.0 | 3.2 | 0.08 | 0.38 | 0.38 | 95 | 1011.4 |
| 20260509183357 | 11 | 192 | 0.0 | 3.2 | 0.08 | 0.38 | 0.38 | 95 | 1011.4 |
| 20260509183124 | 11 | 202 | 0.0 | 3.2 | 0.08 | 0.38 | 0.38 | 95 | 1011.2 |
| 20260509182839 | 11 | 168 | 1.6 | 3.2 | 0.10 | 0.38 | 0.38 | 95 | 1011.4 |
| 20260509182349 | 11 | 226 | 0.0 | 4.8 | 0.08 | 0.36 | 0.36 | 95 | 1011.5 |
| 20260509181857 | 11 | 201 | 1.6 | 4.8 | 0.08 | 0.36 | 0.36 | 94 | 1011.4 |
| 20260509181623 | 11 | 189 | 0.0 | 4.8 | 0.05 | 0.33 | 0.33 | 94 | 1011.3 |
| 20260509181344 | 11 | 210 | 0.0 | 3.2 | 0.05 | 0.33 | 0.33 | 94 | 1011.3 |
| 20260509180848 | 11 | 204 | 0.0 | 4.8 | 0.08 | 0.33 | 0.33 | 94 | 1011.3 |
| 20260509180400 | 12 | 229 | 1.6 | 4.8 | 0.08 | 0.33 | 0.33 | 94 | 1011.4 |
| 20260509180124 | 11 | 189 | 1.6 | 4.8 | 0.08 | 0.33 | 0.33 | 94 | 1011.4 |
| 20260509175843 | 12 | 187 | 1.6 | 3.2 | 0.10 | 0.33 | 0.33 | 94 | 1011.5 |
| 20260509175346 | 12 | 166 | 0.0 | 3.2 | 0.13 | 0.33 | 0.33 | 94 | 1011.4 |
| 20260509174852 | 12 | 186 | 0.0 | 3.2 | 0.13 | 0.30 | 0.30 | 94 | 1011.4 |
| 20260509174616 | 11 | 185 | 0.0 | 3.2 | 0.15 | 0.30 | 0.30 | 94 | 1011.4 |
| 20260509174336 | 12 | 167 | 0.0 | 3.2 | 0.15 | 0.30 | 0.30 | 94 | 1011.5 |
| 20260509173852 | 12 | 208 | 0.0 | 3.2 | 0.20 | 0.30 | 0.30 | 94 | 1011.3 |
| 20260509173340 | 12 | 243 | 0.0 | 3.2 | 0.23 | 0.30 | 0.30 | 94 | 1011.2 |
| 20260509173113 | 11 | 243 | 0.0 | 3.2 | 0.23 | 0.30 | 0.30 | 94 | 1011.1 |
| 20260509172351 | 12 | 239 | 0.0 | 3.2 | 0.23 | 0.28 | 0.28 | 93 | 1011.2 |
| 20260509171908 | 11 | 208 | 0.0 | 3.2 | 0.23 | 0.28 | 0.28 | 93 | 1011.3 |
| 20260509171609 | 11 | 275 | 0.0 | 3.2 | 0.23 | 0.28 | 0.28 | 92 | 1011.2 |
| 20260509171348 | 11 | 276 | 1.6 | 3.2 | 0.25 | 0.28 | 0.28 | 92 | 1011.2 |
| 20260509170847 | 12 | 283 | 0.0 | 3.2 | 0.23 | 0.25 | 0.25 | 92 | 1011.1 |
| 20260509170349 | 12 | 231 | 0.0 | 3.2 | 0.23 | 0.25 | 0.25 | 92 | 1011.2 |
| 20260509170106 | 11 | 291 | 0.0 | 3.2 | 0.23 | 0.25 | 0.25 | 91 | 1011.1 |
| 20260509165845 | 12 | 291 | 0.0 | 3.2 | 0.23 | 0.23 | 0.23 | 91 | 1010.9 |
| 20260509165409 | 12 | 301 | 1.6 | 4.8 | 0.20 | 0.20 | 0.20 | 91 | 1011.2 |
| 20260509164847 | 12 | 283 | 0.0 | 4.8 | 0.18 | 0.18 | 0.18 | 89 | 1011.3 |
| 20260509164610 | 12 | 283 | 1.6 | 4.8 | 0.15 | 0.15 | 0.15 | 89 | 1011.2 |
| 20260509164348 | 12 | 288 | 1.6 | 4.8 | 0.13 | 0.13 | 0.13 | 89 | 1011.4 |
| 20260509163849 | 12 | 275 | 1.6 | 4.8 | 0.10 | 0.10 | 0.10 | 89 | 1011.6 |
| 20260509163351 | 12 | 281 | 0.0 | 4.8 | 0.08 | 0.08 | 0.08 | 88 | 1011.7 |
| 20260509163112 | 12 | 205 | 1.6 | 6.4 | 0.08 | 0.08 | 0.08 | 88 | 1011.6 |
| 20260509162846 | 12 | 186 | 0.0 | 6.4 | 0.08 | 0.08 | 0.08 | 88 | 1011.7 |
| 20260509162410 | 12 | 206 | 1.6 | 8.0 | 0.05 | 0.05 | 0.05 | 86 | 1011.8 |
| 20260509161851 | 13 | 222 | 3.2 | 8.0 | 0.05 | 0.05 | 0.05 | 85 | 1011.8 |
| 20260509161612 | 13 | 206 | 1.6 | 6.4 | 0.05 | 0.05 | 0.05 | 86 | 1011.7 |
| 20260509160357 | 13 | 204 | 3.2 | 9.7 | 0.03 | 0.03 | 0.03 | 83 | 1011.8 |
| 20260509160121 | 13 | 221 | 1.6 | 9.7 | 0.03 | 0.03 | 0.03 | 82 | 1011.7 |
| 20260509155837 | 13 | 195 | 3.2 | 9.7 | 0.00 | 0.00 | 0.00 | 83 | 1011.8 |
| 20260509155341 | 14 | 261 | 1.6 | 4.8 | 0.00 | 0.00 | 0.00 | 84 | 1011.8 |
| 20260509154845 | 14 | 181 | 0.0 | 6.4 | 0.00 | 0.00 | 0.00 | 84 | 1011.8 |
| 20260509154608 | 13 | 198 | 0.0 | 6.4 | 0.00 | 0.00 | 0.00 | 83 | 1011.7 |
| 20260509154347 | 14 | 207 | 1.6 | 6.4 | 0.00 | 0.00 | 0.00 | 83 | 1011.8 |
| 20260509153848 | 14 | 192 | 1.6 | 3.2 | 0.00 | 0.00 | 0.00 | 82 | 1011.8 |
| 20260509153352 | 14 | 193 | 1.6 | 9.7 | 0.00 | 0.00 | 0.00 | 83 | 1011.8 |
| 20260509153112 | 13 | 179 | 0.0 | 9.7 | 0.00 | 0.00 | 0.00 | 82 | 1011.8 |
| 20260509152850 | 14 | 218 | 1.6 | 9.7 | 0.00 | 0.00 | 0.00 | 82 | 1011.9 |
| 20260509152352 | 14 | 193 | 3.2 | 9.7 | 0.00 | 0.00 | 0.00 | 82 | 1011.8 |
| 20260509151854 | 13 | 170 | 1.6 | 6.4 | 0.00 | 0.00 | 0.00 | 82 | 1011.8 |
| 20260509151338 | 13 | 213 | 1.6 | 6.4 | 0.00 | 0.00 | 0.00 | 82 | 1011.7 |
| 20260509150857 | 13 | 204 | 1.6 | 9.7 | 0.00 | 0.00 | 0.00 | 82 | 1011.8 |
| 20260509150420 | 13 | 206 | 4.8 | 9.7 | 0.00 | 0.00 | 0.00 | 82 | 1011.7 |
| 20260509150119 | 13 | 204 | 1.6 | 9.7 | 0.00 | 0.00 | 0.00 | 82 | 1011.7 |
| 20260509145857 | 13 | 212 | 3.2 | 9.7 | 0.00 | 0.00 | 0.00 | 82 | 1011.8 |
| 20260509144845 | 13 | 183 | 1.6 | 6.4 | 0.00 | 0.00 | 0.00 | 82 | 1011.8 |
| 20260509144609 | 13 | 209 | 0.0 | 8.0 | 0.00 | 0.00 | 0.00 | 83 | 1011.7 |
| 20260509144353 | 13 | 172 | 1.6 | 8.0 | 0.00 | 0.00 | 0.00 | 82 | 1011.6 |
| 20260509143837 | 13 | 177 | 1.6 | 8.0 | 0.00 | 0.00 | 0.00 | 82 | 1011.5 |
| 20260509143349 | 13 | 186 | 0.0 | 3.2 | 0.00 | 0.00 | 0.00 | 81 | 1011.3 |
| 20260509143105 | 13 | 186 | 0.0 | 4.8 | 0.00 | 0.00 | 0.00 | 82 | 1011.3 |
| 20260509142850 | 13 | 184 | 0.0 | 4.8 | 0.00 | 0.00 | 0.00 | 81 | 1011.3 |
| 20260509142339 | 13 | 152 | 1.6 | 4.8 | 0.00 | 0.00 | 0.00 | 82 | 1011.4 |
| 20260509141846 | 13 | 173 | 0.0 | 3.2 | 0.00 | 0.00 | 0.00 | 82 | 1011.4 |
| 20260509141611 | 13 | 178 | 0.0 | 3.2 | 0.00 | 0.00 | 0.00 | 83 | 1011.3 |
| 20260509141354 | 13 | 202 | 0.0 | 3.2 | 0.00 | 0.00 | 0.00 | 83 | 1011.4 |
| 20260509140837 | 13 | 200 | 0.0 | 3.2 | 0.00 | 0.00 | 0.00 | 82 | 1011.4 |
| 20260509140408 | 13 | 173 | 0.0 | 3.2 | 0.00 | 0.00 | 0.00 | 83 | 1011.3 |
| 20260509140105 | 12 | 171 | 0.0 | 3.2 | 0.00 | 0.00 | 0.00 | 82 | 1011.2 |
| 20260509135850 | 13 | 165 | 0.0 | 3.2 | 0.00 | 0.00 | 0.00 | 83 | 1011.3 |
| 20260509135336 | 13 | 185 | 0.0 | 3.2 | 0.00 | 0.00 | 0.00 | 83 | 1011.3 |
| 20260509134846 | 13 | 162 | 0.0 | 3.2 | 0.00 | 0.00 | 0.00 | 83 | 1011.3 |
| 20260509134611 | 12 | 162 | 0.0 | 3.2 | 0.00 | 0.00 | 0.00 | 83 | 1011.2 |
| 20260509134357 | 13 | 183 | 0.0 | 3.2 | 0.00 | 0.00 | 0.00 | 83 | 1011.4 |
| 20260509133841 | 12 | 165 | 0.0 | 3.2 | 0.00 | 0.00 | 0.00 | 83 | 1011.3 |
| 20260509133415 | 12 | 165 | 0.0 | 4.8 | 0.00 | 0.00 | 0.00 | 83 | 1011.3 |
| 20260509133111 | 12 | 165 | 0.0 | 4.8 | 0.00 | 0.00 | 0.00 | 83 | 1011.3 |
| 20260509132856 | 12 | 174 | 0.0 | 4.8 | 0.00 | 0.00 | 0.00 | 82 | 1011.3 |
| 20260509132345 | 12 | 151 | 0.0 | 3.2 | 0.00 | 0.00 | 0.00 | 84 | 1011.3 |
| 20260509131847 | 12 | 158 | 1.6 | 3.2 | 0.00 | 0.00 | 0.00 | 83 | 1011.4 |
| 20260509131616 | 12 | 172 | 0.0 | 4.8 | 0.00 | 0.00 | 0.00 | 83 | 1011.2 |
| 20260509131336 | 12 | 111 | 0.0 | 4.8 | 0.00 | 0.00 | 0.00 | 84 | 1011.1 |
| 20260509130843 | 12 | 110 | 1.6 | 4.8 | 0.00 | 0.00 | 0.00 | 84 | 1011.2 |
| 20260509130355 | 12 | 175 | 1.6 | 4.8 | 0.00 | 0.00 | 0.00 | 84 | 1011.2 |
| 20260509130115 | 12 | 150 | 0.0 | 3.2 | 0.00 | 0.00 | 0.00 | 84 | 1011.2 |
| 20260509125838 | 12 | 127 | 0.0 | 1.6 | 0.00 | 0.00 | 0.00 | 84 | 1011.1 |
| 20260509125349 | 12 | 70 | 0.0 | 1.6 | 0.00 | 0.00 | 0.00 | 86 | 1011.1 |
| 20260509124613 | 12 | 70 | 0.0 | 3.2 | 0.00 | 0.00 | 0.00 | 85 | 1011.1 |
| 20260509124336 | 12 | 70 | 0.0 | 3.2 | 0.00 | 0.00 | 0.00 | 84 | 1011.2 |
| 20260509123846 | 12 | 70 | 0.0 | 3.2 | 0.00 | 0.00 | 0.00 | 84 | 1011.2 |
| 20260509123355 | 12 | 84 | 0.0 | 0.0 | 0.00 | 0.00 | 0.00 | 84 | 1011.2 |
| 20260509123118 | 11 | 84 | 0.0 | 0.0 | 0.00 | 0.00 | 0.00 | 85 | 1011.2 |
| 20260509122900 | 12 | 84 | 0.0 | 0.0 | 0.00 | 0.00 | 0.00 | 84 | 1011.4 |
| 20260509122410 | 12 | 71 | 0.0 | 0.0 | 0.00 | 0.00 | 0.00 | 85 | 1011.3 |
| 20260509121852 | 11 | 58 | 0.0 | 6.4 | 0.00 | 0.00 | 0.00 | 84 | 1011.3 |
| 20260509121622 | 11 | 58 | 0.0 | 6.4 | 0.00 | 0.00 | 0.00 | 84 | 1011.3 |
| 20260509121341 | 11 | 124 | 0.0 | 6.4 | 0.00 | 0.00 | 0.00 | 85 | 1011.4 |
| 20260509120848 | 11 | 68 | 0.0 | 0.0 | 0.00 | 0.00 | 0.00 | 85 | 1011.5 |
| 20260509120359 | 11 | 46 | 0.0 | 3.2 | 0.00 | 0.00 | 0.00 | 85 | 1011.5 |
| 20260509120004 | 11 | 50 | 0.0 | 3.2 | 0.00 | 0.00 | 0.00 | 85 | 1011.5 |
| 20260509115903 | 11 | 50 | 0.0 | 3.2 | 0.00 | 0.00 | 0.00 | 85 | 1011.4 |
| 20260509115354 | 11 | 2 | 0.0 | 0.0 | 0.00 | 0.00 | 0.00 | 85 | 1011.4 |
| 20260509114903 | 11 | 54 | 0.0 | 1.6 | 0.00 | 0.00 | 0.00 | 86 | 1011.4 |
| 20260509114609 | 11 | 54 | 0.0 | 1.6 | 0.00 | 0.00 | 0.00 | 86 | 1011.4 |
| 20260509114351 | 11 | 54 | 0.0 | 3.2 | 0.00 | 0.00 | 0.00 | 86 | 1011.4 |
| 20260509113339 | 11 | 338 | 0.0 | 3.2 | 0.00 | 0.00 | 0.00 | 86 | 1011.2 |
| 20260509113133 | 10 | 338 | 0.0 | 3.2 | 0.00 | 0.00 | 0.00 | 86 | 1011.2 |
| 20260509112845 | 11 | 338 | 0.0 | 0.0 | 0.00 | 0.00 | 0.00 | 86 | 1011.2 |
| 20260509112356 | 10 | 302 | 0.0 | 3.2 | 0.00 | 0.00 | 0.00 | 86 | 1011.2 |
| 20260509111842 | 10 | 302 | 0.0 | 3.2 | 0.00 | 0.00 | 0.00 | 86 | 1011.2 |
| 20260509111609 | 10 | 343 | 0.0 | 3.2 | 0.00 | 0.00 | 0.00 | 86 | 1011.2 |
| 20260509111350 | 10 | 14 | 0.0 | 4.8 | 0.00 | 0.00 | 0.00 | 86 | 1011.1 |
| 20260509110911 | 10 | 6 | 1.6 | 4.8 | 0.00 | 0.00 | 0.00 | 86 | 1010.9 |
| 20260509110342 | 10 | 352 | 0.0 | 3.2 | 0.00 | 0.00 | 0.00 | 87 | 1011.1 |
| 20260509110122 | 10 | 352 | 0.0 | 3.2 | 0.00 | 0.00 | 0.00 | 87 | 1011.1 |
| 20260509105842 | 10 | 339 | 0.0 | 1.6 | 0.00 | 0.00 | 0.00 | 87 | 1011.1 |
| 20260509105413 | 10 | 339 | 0.0 | 3.2 | 0.00 | 0.00 | 0.00 | 87 | 1011.0 |
| 20260509104841 | 10 | 313 | 0.0 | 3.2 | 0.00 | 0.00 | 0.00 | 87 | 1010.9 |
| 20260509104609 | 10 | 313 | 0.0 | 3.2 | 0.00 | 0.00 | 0.00 | 87 | 1011.0 |
| 20260509104350 | 10 | 313 | 1.6 | 3.2 | 0.00 | 0.00 | 0.00 | 87 | 1010.9 |
| 20260509103841 | 10 | 323 | 1.6 | 4.8 | 0.00 | 0.00 | 0.00 | 86 | 1011.0 |
| 20260509103351 | 10 | 46 | 0.0 | 4.8 | 0.00 | 0.00 | 0.00 | 86 | 1010.9 |
| 20260509103113 | 10 | 56 | 0.0 | 4.8 | 0.00 | 0.00 | 0.00 | 86 | 1010.8 |
| 20260509102348 | 10 | 54 | 0.0 | 3.2 | 0.00 | 0.00 | 0.00 | 87 | 1010.8 |
| 20260509101854 | 10 | 16 | 0.0 | 3.2 | 0.00 | 0.00 | 0.00 | 87 | 1010.8 |
| 20260509101619 | 10 | 320 | 0.0 | 3.2 | 0.00 | 0.00 | 0.00 | 87 | 1010.9 |
| 20260509101344 | 10 | 313 | 0.0 | 3.2 | 0.00 | 0.00 | 0.00 | 87 | 1010.9 |
| 20260509100911 | 10 | 337 | 0.0 | 3.2 | 0.00 | 0.00 | 0.00 | 87 | 1010.7 |
| 20260509100339 | 10 | 8 | 0.0 | 3.2 | 0.00 | 0.00 | 0.00 | 86 | 1010.7 |
| 20260509100118 | 10 | 8 | 0.0 | 3.2 | 0.00 | 0.00 | 0.00 | 87 | 1010.8 |
| 20260509095844 | 10 | 8 | 0.0 | 3.2 | 0.00 | 0.00 | 0.00 | 87 | 1010.8 |
| 20260509095355 | 10 | 8 | 0.0 | 3.2 | 0.00 | 0.00 | 0.00 | 86 | 1010.7 |
| 20260509094839 | 10 | 8 | 0.0 | 3.2 | 0.00 | 0.00 | 0.00 | 86 | 1010.6 |
| 20260509094605 | 10 | 8 | 0.0 | 1.6 | 0.00 | 0.00 | 0.00 | 86 | 1010.8 |
| 20260509094350 | 10 | 8 | 0.0 | 1.6 | 0.00 | 0.00 | 0.00 | 86 | 1010.8 |
| 20260509093855 | 10 | 341 | 0.0 | 3.2 | 0.00 | 0.00 | 0.00 | 86 | 1010.9 |
| 20260509093347 | 10 | 341 | 0.0 | 3.2 | 0.00 | 0.00 | 0.00 | 86 | 1010.9 |
| 20260509093108 | 10 | 337 | 0.0 | 3.2 | 0.00 | 0.00 | 0.00 | 86 | 1010.9 |
| 20260509092850 | 10 | 337 | 0.0 | 3.2 | 0.00 | 0.00 | 0.00 | 86 | 1010.9 |
| 20260509092337 | 10 | 337 | 0.0 | 3.2 | 0.00 | 0.00 | 0.00 | 86 | 1011.1 |
| 20260509091844 | 10 | 337 | 0.0 | 3.2 | 0.00 | 0.00 | 0.00 | 86 | 1011.1 |
| 20260509091620 | 10 | 337 | 0.0 | 3.2 | 0.00 | 0.00 | 0.00 | 86 | 1011.2 |
| 20260509091356 | 10 | 337 | 0.0 | 3.2 | 0.00 | 0.00 | 0.00 | 86 | 1011.2 |
| 20260509090840 | 10 | 337 | 0.0 | 3.2 | 0.00 | 0.00 | 0.00 | 85 | 1011.1 |
| 20260509090348 | 10 | 337 | 0.0 | 3.2 | 0.00 | 0.00 | 0.00 | 85 | 1011.1 |
| 20260509090111 | 10 | 337 | 0.0 | 3.2 | 0.00 | 0.00 | 0.00 | 85 | 1011.2 |
| 20260509085851 | 10 | 337 | 1.6 | 3.2 | 0.00 | 0.00 | 0.00 | 85 | 1011.1 |
| 20260509085343 | 10 | 357 | 0.0 | 3.2 | 0.00 | 0.00 | 0.00 | 85 | 1011.2 |
| 20260509084850 | 10 | 23 | 0.0 | 4.8 | 0.00 | 0.00 | 0.00 | 84 | 1011.1 |
| 20260509084615 | 10 | 30 | 0.0 | 4.8 | 0.00 | 0.00 | 0.00 | 84 | 1011.2 |
| 20260509084358 | 10 | 23 | 1.6 | 4.8 | 0.00 | 0.00 | 0.00 | 85 | 1011.1 |
| 20260509083844 | 10 | 14 | 0.0 | 3.2 | 0.00 | 0.00 | 0.00 | 86 | 1011.2 |
| 20260509083356 | 10 | 352 | 0.0 | 0.0 | 0.00 | 0.00 | 0.00 | 86 | 1011.4 |
| 20260509083114 | 9 | 352 | 0.0 | 0.0 | 0.00 | 0.00 | 0.00 | 86 | 1011.5 |
| 20260509082857 | 10 | 352 | 0.0 | 0.0 | 0.00 | 0.00 | 0.00 | 86 | 1011.5 |
| 20260509082345 | 10 | 352 | 0.0 | 0.0 | 0.00 | 0.00 | 0.00 | 86 | 1011.6 |
| 20260509081852 | 10 | 352 | 0.0 | 0.0 | 0.00 | 0.00 | 0.00 | 86 | 1011.5 |
| 20260509081622 | 10 | 352 | 0.0 | 0.0 | 0.00 | 0.00 | 0.00 | 85 | 1011.5 |
| 20260509081342 | 10 | 352 | 0.0 | 0.0 | 0.00 | 0.00 | 0.00 | 85 | 1011.5 |
| 20260509080848 | 10 | 352 | 0.0 | 0.0 | 0.00 | 0.00 | 0.00 | 85 | 1011.6 |
| 20260509080400 | 10 | 352 | 0.0 | 0.0 | 0.00 | 0.00 | 0.00 | 85 | 1011.6 |
| 20260509080122 | 10 | 352 | 0.0 | 0.0 | 0.00 | 0.00 | 0.00 | 85 | 1011.7 |
| 20260509075844 | 10 | 352 | 0.0 | 0.0 | 0.00 | 0.00 | 0.00 | 84 | 1011.7 |
| 20260509075417 | 10 | 352 | 0.0 | 0.0 | 0.00 | 0.00 | 0.00 | 84 | 1011.7 |
| 20260509074843 | 10 | 352 | 0.0 | 0.0 | 0.00 | 0.00 | 0.00 | 84 | 1011.7 |
| 20260509074610 | 10 | 352 | 0.0 | 0.0 | 0.00 | 0.00 | 0.00 | 84 | 1011.8 |
| 20260509074414 | 10 | 352 | 0.0 | 0.0 | 0.00 | 0.00 | 0.00 | 83 | 1011.7 |
| 20260509073840 | 10 | 352 | 0.0 | 0.0 | 0.00 | 0.00 | 0.00 | 82 | 1011.6 |
| 20260509073350 | 10 | 352 | 0.0 | 0.0 | 0.00 | 0.00 | 0.00 | 82 | 1011.6 |
| 20260509073109 | 10 | 352 | 0.0 | 0.0 | 0.00 | 0.00 | 0.00 | 82 | 1011.7 |
| 20260509072851 | 10 | 352 | 0.0 | 0.0 | 0.00 | 0.00 | 0.00 | 82 | 1011.6 |
| 20260509072417 | 10 | 352 | 0.0 | 0.0 | 0.00 | 0.00 | 0.00 | 82 | 1011.6 |
| 20260509071841 | 10 | 352 | 0.0 | 0.0 | 0.00 | 0.00 | 0.00 | 81 | 1011.5 |
| 20260509071610 | 10 | 352 | 0.0 | 0.0 | 0.00 | 0.00 | 0.00 | 81 | 1011.5 |
| 20260509071349 | 10 | 352 | 0.0 | 0.0 | 0.00 | 0.00 | 0.00 | 81 | 1011.5 |
| 20260509070840 | 10 | 352 | 0.0 | 0.0 | 0.00 | 0.00 | 0.00 | 80 | 1011.3 |
| 20260509070350 | 10 | 339 | 0.0 | 0.0 | 0.00 | 0.00 | 0.00 | 81 | 1011.4 |
| 20260509070113 | 10 | 339 | 0.0 | 0.0 | 0.00 | 0.00 | 0.00 | 81 | 1011.4 |
| 20260509065852 | 10 | 339 | 0.0 | 0.0 | 0.00 | 0.00 | 0.00 | 81 | 1011.3 |
| 20260509065339 | 10 | 345 | 0.0 | 0.0 | 0.00 | 0.00 | 0.00 | 82 | 1011.4 |
| 20260509064847 | 11 | 345 | 0.0 | 0.0 | 0.00 | 0.00 | 0.00 | 82 | 1011.6 |
| 20260509064618 | 10 | 348 | 0.0 | 0.0 | 0.00 | 0.00 | 0.00 | 82 | 1011.6 |
| 20260509064338 | 11 | 352 | 0.0 | 0.0 | 0.00 | 0.00 | 0.00 | 82 | 1011.6 |
| 20260509063845 | 11 | 344 | 0.0 | 0.0 | 0.00 | 0.00 | 0.00 | 81 | 1011.6 |
| 20260509063411 | 11 | 344 | 0.0 | 0.0 | 0.00 | 0.00 | 0.00 | 82 | 1011.6 |
| 20260509063113 | 10 | 344 | 0.0 | 0.0 | 0.00 | 0.00 | 0.00 | 82 | 1011.7 |
| 20260509062838 | 11 | 344 | 0.0 | 0.0 | 0.00 | 0.00 | 0.00 | 82 | 1011.7 |
| 20260509062348 | 11 | 344 | 0.0 | 0.0 | 0.00 | 0.00 | 0.00 | 82 | 1011.6 |
| 20260509061853 | 11 | 344 | 0.0 | 0.0 | 0.00 | 0.00 | 0.00 | 81 | 1011.8 |
| 20260509061616 | 10 | 344 | 0.0 | 0.0 | 0.00 | 0.00 | 0.00 | 81 | 1011.9 |
| 20260509061341 | 11 | 343 | 0.0 | 0.0 | 0.00 | 0.00 | 0.00 | 79 | 1011.8 |
| 20260509060917 | 11 | 335 | 0.0 | 0.0 | 0.00 | 0.00 | 0.00 | 80 | 1011.9 |
| 20260509060345 | 11 | 335 | 0.0 | 0.0 | 0.00 | 0.00 | 0.00 | 80 | 1012.0 |
| 20260509055850 | 11 | 335 | 0.0 | 0.0 | 0.00 | 0.00 | 0.00 | 80 | 1012.1 |
| 20260509055336 | 11 | 335 | 0.0 | 0.0 | 0.00 | 0.00 | 0.00 | 80 | 1012.2 |